Max Planck — ELZY8 — position and weather

sailwx.info

Track history (hours):
 
Tides and Currents Weather Stations Pressure Air Temp Water Temp Dewpoint Dewpoint Depression Visibility Wind Speed Wind Dir Waves Ship Positions

Max Planck

Last reported at 2016-Sep-07 04:33 UTC. Time now 2016-Oct-01 05:00 UTC.
Position N 34°51' E 139°21'.
Warning: this ship's position is 24 days out of date.

Length 99.9 m; beam 16.2 m; draft 6.8 m.

Type: Ship (hazmat cat A). MMSI: 636017362.

Date/timePositionNaut miles runAvg speedWind from/ knotsBaromVisibWave heightAir tempDewpointWater temp
2016-Sep-07 04:33N 34°51' E 139°21'10 8.2
2016-Sep-07 03:20N 34°58' E 139°29'7 8.2
2016-Sep-07 02:31N 35°01' E 139°36'8 7.7
2016-Sep-07 01:33N 35°06' E 139°43'9 9.2
2016-Sep-07 00:33N 35°15' E 139°46'1010.3
2016-Sep-06 23:33N 35°25' E 139°44'1211.7
2016-Sep-06 22:33N 35°31' E 139°56'6 5.7
2016-Sep-06 21:32N 35°32' E 140°03'0 0.0
2016-Sep-06 20:29N 35°32' E 140°03'0 0.0
2016-Sep-06 19:32N 35°32' E 140°03'0 0.0
2016-Sep-06 18:17N 35°32' E 140°03'0 0.0
2016-Sep-06 17:29N 35°32' E 140°03'0 0.0
2016-Sep-06 16:29N 35°32' E 140°03'0 0.0
2016-Sep-06 15:29N 35°32' E 140°03'0 0.0
2016-Sep-06 14:23N 35°32' E 140°03'0 0.0
2016-Sep-06 13:23N 35°32' E 140°03'0 0.0
2016-Sep-06 12:29N 35°32' E 140°03'0 0.0
2016-Sep-06 11:29N 35°32' E 140°03'0 0.0
2016-Sep-06 10:32N 35°32' E 140°03'0 0.0
2016-Sep-06 09:32N 35°32' E 140°03'0 0.0
2016-Sep-06 08:32N 35°32' E 140°03'0 0.0
2016-Sep-06 07:26N 35°32' E 140°03'1 0.8
2016-Sep-06 06:34N 35°32' E 140°03'3 1.6
2016-Sep-06 04:32N 35°31' E 139°59'0 0.0
2016-Sep-06 03:32N 35°31' E 139°59'0 0.0
2016-Sep-06 02:32N 35°31' E 139°59'0 0.0
2016-Sep-06 01:31N 35°31' E 139°59'0 0.0
2016-Sep-06 00:31N 35°31' E 139°59'0 0.0
2016-Sep-05 23:31N 35°31' E 139°59'0 0.0
2016-Sep-05 22:31N 35°31' E 139°59'0 0.0
2016-Sep-05 21:31N 35°31' E 139°59'0 0.0
2016-Sep-05 20:31N 35°31' E 139°59'0 0.0
2016-Sep-05 19:31N 35°31' E 139°59'0 0.0
2016-Sep-05 18:31N 35°31' E 139°59'0 0.0
2016-Sep-05 17:31N 35°31' E 139°59'0 0.0
2016-Sep-05 16:31N 35°31' E 139°59'0 0.0
2016-Sep-05 15:31N 35°31' E 139°59'0 0.1
2016-Sep-05 14:31N 35°31' E 139°59'1 0.9
2016-Sep-05 13:33N 35°30' E 139°58'1212.0
2016-Sep-05 12:33N 35°24' E 139°46'1010.5
2016-Sep-05 11:33N 35°13' E 139°47'9 9.3
2016-Sep-05 10:33N 35°05' E 139°42'1410.2
2016-Sep-05 09:08N 34°56' E 139°28'229 9.3
2016-Sep-04 08:33N 34°01' E 134°58'1211.7
2016-Sep-04 07:33N 34°13' E 134°59'  
Track history (hours):
 
Tides and Currents Weather Stations Pressure Air Temp Water Temp Dewpoint Dewpoint Depression Visibility Wind Speed Wind Dir Waves Ship Positions

Max Planck

Last reported at 2016-Sep-07 04:33 UTC. Time now 2016-Oct-01 05:00 UTC.
Position N 34°51' E 139°21'.
Warning: this ship's position is 24 days out of date.

Length 99.9 m; beam 16.2 m; draft 6.8 m.

Type: Ship (hazmat cat A). MMSI: 636017362.

Date/timePositionNaut miles runAvg speedWind from/ knotsBaromVisibWave heightAir tempDewpointWater temp
2016-Sep-07 04:33N 34°51' E 139°21'10 8.2
2016-Sep-07 03:20N 34°58' E 139°29'7 8.2
2016-Sep-07 02:31N 35°01' E 139°36'8 7.7
2016-Sep-07 01:33N 35°06' E 139°43'9 9.2
2016-Sep-07 00:33N 35°15' E 139°46'1010.3
2016-Sep-06 23:33N 35°25' E 139°44'1211.7
2016-Sep-06 22:33N 35°31' E 139°56'6 5.7
2016-Sep-06 21:32N 35°32' E 140°03'0 0.0
2016-Sep-06 20:29N 35°32' E 140°03'0 0.0
2016-Sep-06 19:32N 35°32' E 140°03'0 0.0
2016-Sep-06 18:17N 35°32' E 140°03'0 0.0
2016-Sep-06 17:29N 35°32' E 140°03'0 0.0
2016-Sep-06 16:29N 35°32' E 140°03'0 0.0
2016-Sep-06 15:29N 35°32' E 140°03'0 0.0
2016-Sep-06 14:23N 35°32' E 140°03'0 0.0
2016-Sep-06 13:23N 35°32' E 140°03'0 0.0
2016-Sep-06 12:29N 35°32' E 140°03'0 0.0
2016-Sep-06 11:29N 35°32' E 140°03'0 0.0
2016-Sep-06 10:32N 35°32' E 140°03'0 0.0
2016-Sep-06 09:32N 35°32' E 140°03'0 0.0
2016-Sep-06 08:32N 35°32' E 140°03'0 0.0
2016-Sep-06 07:26N 35°32' E 140°03'1 0.8
2016-Sep-06 06:34N 35°32' E 140°03'3 1.6
2016-Sep-06 04:32N 35°31' E 139°59'0 0.0
2016-Sep-06 03:32N 35°31' E 139°59'0 0.0
2016-Sep-06 02:32N 35°31' E 139°59'0 0.0
2016-Sep-06 01:31N 35°31' E 139°59'0 0.0
2016-Sep-06 00:31N 35°31' E 139°59'0 0.0
2016-Sep-05 23:31N 35°31' E 139°59'0 0.0
2016-Sep-05 22:31N 35°31' E 139°59'0 0.0
2016-Sep-05 21:31N 35°31' E 139°59'0 0.0
2016-Sep-05 20:31N 35°31' E 139°59'0 0.0
2016-Sep-05 19:31N 35°31' E 139°59'0 0.0
2016-Sep-05 18:31N 35°31' E 139°59'0 0.0
2016-Sep-05 17:31N 35°31' E 139°59'0 0.0
2016-Sep-05 16:31N 35°31' E 139°59'0 0.0
2016-Sep-05 15:31N 35°31' E 139°59'0 0.1
2016-Sep-05 14:31N 35°31' E 139°59'1 0.9
2016-Sep-05 13:33N 35°30' E 139°58'1212.0
2016-Sep-05 12:33N 35°24' E 139°46'1010.5
2016-Sep-05 11:33N 35°13' E 139°47'9 9.3
2016-Sep-05 10:33N 35°05' E 139°42'1410.2
2016-Sep-05 09:08N 34°56' E 139°28'229 9.3
2016-Sep-04 08:33N 34°01' E 134°58'1211.7
2016-Sep-04 07:33N 34°13' E 134°59'  

Dump ship's entire track history